sensor_id;sensor_type;location;lat;lon;timestamp;noise_LAeq;noise_LA_min;noise_LA_max;noise_LA01;noise_LA95
45478;Laerm;31227;47.986;11.868;2023-02-01T00:01:21;41.07;34.31;63.33;;
45478;Laerm;31227;47.986;11.868;2023-02-01T00:03:47;38.11;34.31;46.80;;
45478;Laerm;31227;47.986;11.868;2023-02-01T00:06:12;38.46;32.58;56.45;;
45478;Laerm;31227;47.986;11.868;2023-02-01T00:08:37;38.18;32.93;45.42;;
45478;Laerm;31227;47.986;11.868;2023-02-01T00:11:04;39.91;34.69;61.57;;
45478;Laerm;31227;47.986;11.868;2023-02-01T00:13:30;38.98;34.31;58.03;;
45478;Laerm;31227;47.986;11.868;2023-02-01T00:16:01;38.34;34.69;53.35;;
45478;Laerm;31227;47.986;11.868;2023-02-01T00:18:27;38.28;33.90;50.04;;
45478;Laerm;31227;47.986;11.868;2023-02-01T00:20:52;38.52;34.31;53.70;;
45478;Laerm;31227;47.986;11.868;2023-02-01T00:23:17;37.95;34.31;43.04;;
45478;Laerm;31227;47.986;11.868;2023-02-01T00:25:42;37.86;33.44;42.59;;
45478;Laerm;31227;47.986;11.868;2023-02-01T00:28:07;37.76;33.90;41.75;;
45478;Laerm;31227;47.986;11.868;2023-02-01T00:30:33;38.05;34.31;55.25;;
45478;Laerm;31227;47.986;11.868;2023-02-01T00:32:58;37.79;33.90;44.47;;
45478;Laerm;31227;47.986;11.868;2023-02-01T00:35:23;37.98;34.69;43.89;;
45478;Laerm;31227;47.986;11.868;2023-02-01T00:37:48;38.17;33.90;45.07;;
45478;Laerm;31227;47.986;11.868;2023-02-01T00:40:14;37.73;34.31;40.53;;
45478;Laerm;31227;47.986;11.868;2023-02-01T00:42:39;38.59;34.69;46.48;;
45478;Laerm;31227;47.986;11.868;2023-02-01T00:45:04;38.10;33.90;44.97;;
45478;Laerm;31227;47.986;11.868;2023-02-01T00:47:30;38.90;34.69;46.13;;
45478;Laerm;31227;47.986;11.868;2023-02-01T00:49:55;38.85;33.90;50.92;;
45478;Laerm;31227;47.986;11.868;2023-02-01T00:52:20;37.80;33.90;43.09;;
45478;Laerm;31227;47.986;11.868;2023-02-01T00:54:46;38.29;34.69;45.23;;
45478;Laerm;31227;47.986;11.868;2023-02-01T00:57:11;37.92;34.69;44.23;;
45478;Laerm;31227;47.986;11.868;2023-02-01T00:59:36;37.77;33.90;40.80;;
45478;Laerm;31227;47.986;11.868;2023-02-01T01:02:01;37.91;33.90;42.88;;
45478;Laerm;31227;47.986;11.868;2023-02-01T01:04:27;38.36;34.31;47.24;;
45478;Laerm;31227;47.986;11.868;2023-02-01T01:06:52;37.78;33.44;40.45;;
45478;Laerm;31227;47.986;11.868;2023-02-01T01:09:18;38.58;34.31;51.92;;
45478;Laerm;31227;47.986;11.868;2023-02-01T01:11:43;38.96;34.31;56.18;;
45478;Laerm;31227;47.986;11.868;2023-02-01T01:14:08;38.35;34.31;49.38;;
45478;Laerm;31227;47.986;11.868;2023-02-01T01:16:37;40.86;33.44;64.41;;
45478;Laerm;31227;47.986;11.868;2023-02-01T01:19:02;38.49;34.31;50.86;;
45478;Laerm;31227;47.986;11.868;2023-02-01T01:21:28;38.32;34.31;56.44;;
45478;Laerm;31227;47.986;11.868;2023-02-01T01:23:53;38.53;34.31;56.49;;
45478;Laerm;31227;47.986;11.868;2023-02-01T01:26:23;38.36;34.31;52.04;;
45478;Laerm;31227;47.986;11.868;2023-02-01T01:28:52;41.03;33.90;63.81;;
45478;Laerm;31227;47.986;11.868;2023-02-01T01:34:13;39.12;33.90;58.74;;
45478;Laerm;31227;47.986;11.868;2023-02-01T01:39:55;37.58;32.35;45.60;;
45478;Laerm;31227;47.986;11.868;2023-02-01T01:42:23;38.81;33.44;59.35;;
45478;Laerm;31227;47.986;11.868;2023-02-01T01:45:05;39.61;32.93;55.22;;
45478;Laerm;31227;47.986;11.868;2023-02-01T01:47:41;37.88;31.68;44.39;;
45478;Laerm;31227;47.986;11.868;2023-02-01T01:50:15;37.79;31.68;43.90;;
45478;Laerm;31227;47.986;11.868;2023-02-01T01:52:45;37.76;32.93;47.12;;
45478;Laerm;31227;47.986;11.868;2023-02-01T01:55:21;38.27;33.44;53.76;;
45478;Laerm;31227;47.986;11.868;2023-02-01T01:57:50;37.83;32.35;49.39;;
45478;Laerm;31227;47.986;11.868;2023-02-01T02:00:21;39.03;33.44;50.80;;
45478;Laerm;31227;47.986;11.868;2023-02-01T02:02:52;37.71;32.93;46.59;;
45478;Laerm;31227;47.986;11.868;2023-02-01T02:05:22;39.06;33.90;52.94;;
45478;Laerm;31227;47.986;11.868;2023-02-01T02:07:48;37.58;33.44;50.07;;
45478;Laerm;31227;47.986;11.868;2023-02-01T02:10:15;38.47;32.93;52.59;;
45478;Laerm;31227;47.986;11.868;2023-02-01T02:12:41;38.91;33.44;50.60;;
45478;Laerm;31227;47.986;11.868;2023-02-01T02:15:07;38.94;32.93;50.00;;
45478;Laerm;31227;47.986;11.868;2023-02-01T02:35:32;37.43;32.35;42.98;;
45478;Laerm;31227;47.986;11.868;2023-02-01T02:40:53;37.91;32.93;44.80;;
45478;Laerm;31227;47.986;11.868;2023-02-01T02:43:23;38.37;32.35;52.98;;
45478;Laerm;31227;47.986;11.868;2023-02-01T02:49:04;38.83;33.44;56.32;;
45478;Laerm;31227;47.986;11.868;2023-02-01T02:51:43;37.67;32.93;47.34;;
45478;Laerm;31227;47.986;11.868;2023-02-01T02:54:33;38.54;32.93;52.40;;
45478;Laerm;31227;47.986;11.868;2023-02-01T03:00:11;38.47;32.93;54.40;;
45478;Laerm;31227;47.986;11.868;2023-02-01T03:02:55;37.97;32.93;44.80;;
45478;Laerm;31227;47.986;11.868;2023-02-01T03:05:41;38.17;33.44;54.00;;
45478;Laerm;31227;47.986;11.868;2023-02-01T03:08:20;37.72;32.93;45.99;;
45478;Laerm;31227;47.986;11.868;2023-02-01T03:13:51;38.40;32.35;51.72;;
45478;Laerm;31227;47.986;11.868;2023-02-01T03:21:18;37.80;33.44;43.90;;
45478;Laerm;31227;47.986;11.868;2023-02-01T03:23:47;37.96;33.90;45.42;;
45478;Laerm;31227;47.986;11.868;2023-02-01T03:26:17;38.13;32.93;44.62;;
45478;Laerm;31227;47.986;11.868;2023-02-01T03:28:45;37.97;33.44;47.79;;
45478;Laerm;31227;47.986;11.868;2023-02-01T03:31:29;39.43;33.44;49.49;;
45478;Laerm;31227;47.986;11.868;2023-02-01T03:33:55;37.86;32.93;50.59;;
45478;Laerm;31227;47.986;11.868;2023-02-01T03:39:32;38.41;32.93;47.09;;
45478;Laerm;31227;47.986;11.868;2023-02-01T03:42:24;38.06;31.68;46.18;;
45478;Laerm;31227;47.986;11.868;2023-02-01T03:45:04;37.55;32.35;43.77;;
45478;Laerm;31227;47.986;11.868;2023-02-01T03:50:43;38.74;33.44;55.69;;
45478;Laerm;31227;47.986;11.868;2023-02-01T03:53:11;39.46;33.44;50.10;;
45478;Laerm;31227;47.986;11.868;2023-02-01T03:55:42;38.22;32.93;45.01;;
45478;Laerm;31227;47.986;11.868;2023-02-01T03:58:20;39.81;33.44;56.48;;
45478;Laerm;31227;47.986;11.868;2023-02-01T04:00:58;39.69;33.90;47.26;;
45478;Laerm;31227;47.986;11.868;2023-02-01T04:03:29;38.83;32.93;54.47;;
45478;Laerm;31227;47.986;11.868;2023-02-01T04:06:13;38.45;33.44;52.88;;
45478;Laerm;31227;47.986;11.868;2023-02-01T04:08:47;40.16;33.44;49.43;;
45478;Laerm;31227;47.986;11.868;2023-02-01T04:11:15;38.11;32.93;44.97;;
45478;Laerm;31227;47.986;11.868;2023-02-01T04:13:53;39.39;33.90;53.91;;
45478;Laerm;31227;47.986;11.868;2023-02-01T04:16:40;38.76;33.90;46.97;;
45478;Laerm;31227;47.986;11.868;2023-02-01T04:19:18;39.56;33.44;51.62;;
45478;Laerm;31227;47.986;11.868;2023-02-01T04:21:47;39.32;33.44;51.74;;
45478;Laerm;31227;47.986;11.868;2023-02-01T04:24:53;39.68;32.93;46.84;;
45478;Laerm;31227;47.986;11.868;2023-02-01T04:27:21;40.24;32.35;54.18;;
45478;Laerm;31227;47.986;11.868;2023-02-01T04:42:51;39.83;32.93;47.50;;
45478;Laerm;31227;47.986;11.868;2023-02-01T04:45:28;40.60;34.31;55.71;;
45478;Laerm;31227;47.986;11.868;2023-02-01T04:54:47;39.50;33.90;46.15;;
45478;Laerm;31227;47.986;11.868;2023-02-01T04:57:47;39.74;34.31;49.02;;
45478;Laerm;31227;47.986;11.868;2023-02-01T05:13:35;40.69;34.31;52.47;;
45478;Laerm;31227;47.986;11.868;2023-02-01T05:19:49;40.82;34.31;53.07;;
45478;Laerm;31227;47.986;11.868;2023-02-01T05:22:24;39.44;33.44;47.34;;
45478;Laerm;31227;47.986;11.868;2023-02-01T05:25:36;40.93;34.69;53.96;;
45478;Laerm;31227;47.986;11.868;2023-02-01T05:28:28;40.94;35.04;50.88;;
45478;Laerm;31227;47.986;11.868;2023-02-01T05:34:22;41.99;35.36;52.08;;
45478;Laerm;31227;47.986;11.868;2023-02-01T05:40:24;41.05;34.31;47.67;;
45478;Laerm;31227;47.986;11.868;2023-02-01T05:46:05;42.38;35.66;54.19;;
45478;Laerm;31227;47.986;11.868;2023-02-01T05:48:46;42.66;35.01;63.59;;
45478;Laerm;31227;47.986;11.868;2023-02-01T05:54:33;40.41;33.90;48.81;;
45478;Laerm;31227;47.986;11.868;2023-02-01T06:04:09;41.89;35.36;53.52;;
45478;Laerm;31227;47.986;11.868;2023-02-01T06:07:06;41.85;34.69;54.54;;
45478;Laerm;31227;47.986;11.868;2023-02-01T06:10:00;40.94;34.31;51.65;;
45478;Laerm;31227;47.986;11.868;2023-02-01T06:12:46;41.55;35.04;53.07;;
45478;Laerm;31227;47.986;11.868;2023-02-01T06:15:46;41.64;35.66;60.03;;
45478;Laerm;31227;47.986;11.868;2023-02-01T06:18:20;41.34;34.69;56.72;;
45478;Laerm;31227;47.986;11.868;2023-02-01T06:23:36;41.93;36.91;48.15;;
45478;Laerm;31227;47.986;11.868;2023-02-01T06:26:05;41.84;35.36;59.54;;
45478;Laerm;31227;47.986;11.868;2023-02-01T06:31:45;42.90;36.91;57.28;;
45478;Laerm;31227;47.986;11.868;2023-02-01T06:34:31;42.58;35.94;59.55;;
45478;Laerm;31227;47.986;11.868;2023-02-01T06:42:52;44.60;35.66;63.86;;
45478;Laerm;31227;47.986;11.868;2023-02-01T06:47:58;42.12;35.94;60.51;;
45478;Laerm;31227;47.986;11.868;2023-02-01T06:50:24;41.80;35.66;50.32;;
45478;Laerm;31227;47.986;11.868;2023-02-01T06:52:49;42.44;36.45;53.59;;
45478;Laerm;31227;47.986;11.868;2023-02-01T06:55:15;43.81;36.45;66.22;;
45478;Laerm;31227;47.986;11.868;2023-02-01T06:57:40;42.50;35.36;57.84;;
45478;Laerm;31227;47.986;11.868;2023-02-01T07:00:06;42.00;35.04;53.08;;
45478;Laerm;31227;47.986;11.868;2023-02-01T07:02:31;42.73;36.45;56.40;;
45478;Laerm;31227;47.986;11.868;2023-02-01T07:04:56;42.52;35.66;64.20;;
45478;Laerm;31227;47.986;11.868;2023-02-01T07:07:21;41.42;34.31;55.46;;
45478;Laerm;31227;47.986;11.868;2023-02-01T07:09:48;42.39;34.69;59.20;;
45478;Laerm;31227;47.986;11.868;2023-02-01T07:12:13;42.03;35.94;53.19;;
45478;Laerm;31227;47.986;11.868;2023-02-01T07:14:39;43.29;36.45;61.69;;
45478;Laerm;31227;47.986;11.868;2023-02-01T07:17:04;43.09;35.36;59.52;;
45478;Laerm;31227;47.986;11.868;2023-02-01T07:19:29;42.12;35.04;62.16;;
45478;Laerm;31227;47.986;11.868;2023-02-01T07:21:54;42.08;36.45;54.40;;
45478;Laerm;31227;47.986;11.868;2023-02-01T07:27:11;42.87;36.20;59.92;;
45478;Laerm;31227;47.986;11.868;2023-02-01T07:29:37;44.84;35.94;64.26;;
45478;Laerm;31227;47.986;11.868;2023-02-01T07:32:13;42.53;36.91;57.57;;
45478;Laerm;31227;47.986;11.868;2023-02-01T07:40:41;41.91;35.94;58.84;;
45478;Laerm;31227;47.986;11.868;2023-02-01T07:43:15;41.33;35.36;48.32;;
45478;Laerm;31227;47.986;11.868;2023-02-01T07:45:49;41.90;35.94;56.64;;
45478;Laerm;31227;47.986;11.868;2023-02-01T07:48:24;43.42;36.77;64.94;;
45478;Laerm;31227;47.986;11.868;2023-02-01T07:51:11;43.39;36.20;61.57;;
45478;Laerm;31227;47.986;11.868;2023-02-01T07:53:37;41.80;35.36;57.46;;
45478;Laerm;31227;47.986;11.868;2023-02-01T07:56:03;41.46;35.36;51.08;;
45478;Laerm;31227;47.986;11.868;2023-02-01T07:58:28;41.33;35.94;48.34;;
45478;Laerm;31227;47.986;11.868;2023-02-01T08:00:54;41.35;35.04;56.61;;
45478;Laerm;31227;47.986;11.868;2023-02-01T08:03:38;40.83;35.36;48.34;;
45478;Laerm;31227;47.986;11.868;2023-02-01T08:06:04;41.38;34.31;51.75;;
45478;Laerm;31227;47.986;11.868;2023-02-01T08:08:29;41.49;34.31;49.85;;
45478;Laerm;31227;47.986;11.868;2023-02-01T08:11:01;41.40;35.66;49.75;;
45478;Laerm;31227;47.986;11.868;2023-02-01T08:13:27;41.54;35.36;56.64;;
45478;Laerm;31227;47.986;11.868;2023-02-01T08:15:57;42.21;35.86;55.23;;
45478;Laerm;31227;47.986;11.868;2023-02-01T08:18:22;41.28;35.04;51.55;;
45478;Laerm;31227;47.986;11.868;2023-02-01T08:20:47;42.60;34.69;66.31;;
45478;Laerm;31227;47.986;11.868;2023-02-01T08:23:13;41.73;35.36;58.43;;
45478;Laerm;31227;47.986;11.868;2023-02-01T08:25:38;41.59;35.66;63.86;;
45478;Laerm;31227;47.986;11.868;2023-02-01T08:28:04;40.84;35.36;52.18;;
45478;Laerm;31227;47.986;11.868;2023-02-01T08:30:29;42.23;35.94;64.03;;
45478;Laerm;31227;47.986;11.868;2023-02-01T08:32:54;41.46;35.94;52.66;;
45478;Laerm;31227;47.986;11.868;2023-02-01T08:35:20;41.48;34.69;61.40;;
45478;Laerm;31227;47.986;11.868;2023-02-01T08:37:45;40.61;33.55;47.39;;
45478;Laerm;31227;47.986;11.868;2023-02-01T08:40:10;41.52;35.04;51.62;;
45478;Laerm;31227;47.986;11.868;2023-02-01T08:42:35;41.40;34.69;55.45;;
45478;Laerm;31227;47.986;11.868;2023-02-01T08:45:16;42.23;34.69;59.02;;
45478;Laerm;31227;47.986;11.868;2023-02-01T08:47:43;41.13;34.69;62.33;;
45478;Laerm;31227;47.986;11.868;2023-02-01T08:50:09;41.18;35.36;50.73;;
45478;Laerm;31227;47.986;11.868;2023-02-01T08:52:34;41.54;35.04;53.90;;
45478;Laerm;31227;47.986;11.868;2023-02-01T08:54:59;41.40;34.69;48.83;;
45478;Laerm;31227;47.986;11.868;2023-02-01T08:57:25;41.74;34.69;53.63;;
45478;Laerm;31227;47.986;11.868;2023-02-01T08:59:50;43.32;35.04;69.42;;
45478;Laerm;31227;47.986;11.868;2023-02-01T09:02:16;42.63;35.36;63.22;;
45478;Laerm;31227;47.986;11.868;2023-02-01T09:04:42;40.89;34.69;54.38;;
45478;Laerm;31227;47.986;11.868;2023-02-01T09:07:08;41.17;35.66;56.19;;
45478;Laerm;31227;47.986;11.868;2023-02-01T09:09:33;41.90;35.04;60.69;;
45478;Laerm;31227;47.986;11.868;2023-02-01T09:11:58;42.77;34.31;64.22;;
45478;Laerm;31227;47.986;11.868;2023-02-01T09:14:24;42.03;33.90;60.74;;
45478;Laerm;31227;47.986;11.868;2023-02-01T09:16:49;41.87;35.04;53.09;;
45478;Laerm;31227;47.986;11.868;2023-02-01T09:19:14;42.75;34.69;56.89;;
45478;Laerm;31227;47.986;11.868;2023-02-01T09:21:39;44.45;34.34;70.04;;
45478;Laerm;31227;47.986;11.868;2023-02-01T09:24:05;42.69;35.04;62.28;;
45478;Laerm;31227;47.986;11.868;2023-02-01T09:26:30;40.94;35.04;48.00;;
45478;Laerm;31227;47.986;11.868;2023-02-01T09:28:55;41.53;35.36;57.69;;
45478;Laerm;31227;47.986;11.868;2023-02-01T09:31:20;41.62;34.31;55.82;;
45478;Laerm;31227;47.986;11.868;2023-02-01T09:33:46;41.12;34.69;52.01;;
45478;Laerm;31227;47.986;11.868;2023-02-01T09:36:11;42.52;35.04;61.77;;
45478;Laerm;31227;47.986;11.868;2023-02-01T09:38:36;40.20;34.31;53.57;;
45478;Laerm;31227;47.986;11.868;2023-02-01T09:41:06;42.40;34.69;60.03;;
45478;Laerm;31227;47.986;11.868;2023-02-01T09:43:38;42.92;34.69;65.86;;
45478;Laerm;31227;47.986;11.868;2023-02-01T09:48:41;40.17;35.36;49.24;;
45478;Laerm;31227;47.986;11.868;2023-02-01T09:51:30;41.09;35.04;49.33;;
45478;Laerm;31227;47.986;11.868;2023-02-01T09:54:12;41.62;35.36;49.52;;
45478;Laerm;31227;47.986;11.868;2023-02-01T09:59:13;42.25;34.69;54.07;;
45478;Laerm;31227;47.986;11.868;2023-02-01T10:01:42;41.16;33.97;57.18;;
45478;Laerm;31227;47.986;11.868;2023-02-01T10:04:09;40.44;35.36;52.80;;
45478;Laerm;31227;47.986;11.868;2023-02-01T10:20:18;41.85;35.04;53.96;;
45478;Laerm;31227;47.986;11.868;2023-02-01T10:22:53;41.97;35.04;53.86;;
45478;Laerm;31227;47.986;11.868;2023-02-01T10:25:24;41.25;33.90;52.13;;
45478;Laerm;31227;47.986;11.868;2023-02-01T10:27:51;42.40;34.69;63.65;;
45478;Laerm;31227;47.986;11.868;2023-02-01T10:30:18;47.13;35.94;73.13;;
45478;Laerm;31227;47.986;11.868;2023-02-01T10:32:44;41.80;35.36;64.96;;
45478;Laerm;31227;47.986;11.868;2023-02-01T10:35:15;47.55;35.66;71.89;;
45478;Laerm;31227;47.986;11.868;2023-02-01T10:37:41;41.90;34.69;57.13;;
45478;Laerm;31227;47.986;11.868;2023-02-01T10:42:35;43.07;37.12;58.89;;
45478;Laerm;31227;47.986;11.868;2023-02-01T10:45:00;48.55;35.36;71.67;;
45478;Laerm;31227;47.986;11.868;2023-02-01T10:47:27;44.97;36.20;64.52;;
45478;Laerm;31227;47.986;11.868;2023-02-01T10:49:54;43.56;35.36;66.57;;
45478;Laerm;31227;47.986;11.868;2023-02-01T10:52:33;41.55;35.36;56.19;;
45478;Laerm;31227;47.986;11.868;2023-02-01T10:57:48;43.24;35.66;61.07;;
45478;Laerm;31227;47.986;11.868;2023-02-01T11:00:20;44.32;36.45;69.92;;
45478;Laerm;31227;47.986;11.868;2023-02-01T11:02:45;43.99;36.45;70.83;;
45478;Laerm;31227;47.986;11.868;2023-02-01T11:05:11;50.00;35.66;71.83;;
45478;Laerm;31227;47.986;11.868;2023-02-01T11:07:37;42.88;35.94;60.61;;
45478;Laerm;31227;47.986;11.868;2023-02-01T11:10:03;46.25;35.36;68.94;;
45478;Laerm;31227;47.986;11.868;2023-02-01T11:12:38;43.79;35.66;68.30;;
45478;Laerm;31227;47.986;11.868;2023-02-01T11:15:20;42.75;35.36;60.01;;
45478;Laerm;31227;47.986;11.868;2023-02-01T11:17:46;41.83;35.31;55.59;;
45478;Laerm;31227;47.986;11.868;2023-02-01T11:20:19;41.53;35.04;53.26;;
45478;Laerm;31227;47.986;11.868;2023-02-01T11:23:02;43.26;34.31;65.68;;
45478;Laerm;31227;47.986;11.868;2023-02-01T11:25:28;41.58;34.69;60.26;;
45478;Laerm;31227;47.986;11.868;2023-02-01T11:27:54;41.14;34.31;49.69;;
45478;Laerm;31227;47.986;11.868;2023-02-01T11:30:31;42.02;35.66;53.10;;
45478;Laerm;31227;47.986;11.868;2023-02-01T11:32:57;41.85;35.66;58.93;;
45478;Laerm;31227;47.986;11.868;2023-02-01T11:35:24;43.96;35.94;59.75;;
45478;Laerm;31227;47.986;11.868;2023-02-01T11:37:55;42.19;36.69;53.55;;
45478;Laerm;31227;47.986;11.868;2023-02-01T11:40:37;42.20;35.66;53.33;;
45478;Laerm;31227;47.986;11.868;2023-02-01T11:45:54;42.01;35.94;54.90;;
45478;Laerm;31227;47.986;11.868;2023-02-01T11:48:23;41.65;35.66;52.18;;
45478;Laerm;31227;47.986;11.868;2023-02-01T11:51:13;43.27;35.66;61.68;;
45478;Laerm;31227;47.986;11.868;2023-02-01T11:53:58;42.53;35.66;58.59;;
45478;Laerm;31227;47.986;11.868;2023-02-01T11:56:32;43.03;35.36;59.58;;
45478;Laerm;31227;47.986;11.868;2023-02-01T11:59:04;42.36;35.66;60.51;;
45478;Laerm;31227;47.986;11.868;2023-02-01T12:01:42;41.57;35.36;53.66;;
45478;Laerm;31227;47.986;11.868;2023-02-01T12:09:31;41.20;35.36;53.83;;
45478;Laerm;31227;47.986;11.868;2023-02-01T12:12:19;42.31;36.20;61.06;;
45478;Laerm;31227;47.986;11.868;2023-02-01T12:20:12;41.97;34.31;60.34;;
45478;Laerm;31227;47.986;11.868;2023-02-01T12:25:31;43.65;35.94;62.44;;
45478;Laerm;31227;47.986;11.868;2023-02-01T12:31:29;44.37;36.10;64.91;;
45478;Laerm;31227;47.986;11.868;2023-02-01T12:41:34;45.42;34.69;72.40;;
45478;Laerm;31227;47.986;11.868;2023-02-01T12:44:16;41.97;34.69;58.73;;
45478;Laerm;31227;47.986;11.868;2023-02-01T12:46:59;43.43;35.36;67.29;;
45478;Laerm;31227;47.986;11.868;2023-02-01T12:49:38;42.17;35.94;58.25;;
45478;Laerm;31227;47.986;11.868;2023-02-01T12:52:11;42.68;35.36;55.42;;
45478;Laerm;31227;47.986;11.868;2023-02-01T12:57:04;45.10;35.66;66.67;;
45478;Laerm;31227;47.986;11.868;2023-02-01T13:07:11;41.88;35.04;63.64;;
45478;Laerm;31227;47.986;11.868;2023-02-01T13:12:07;43.45;33.90;64.98;;
45478;Laerm;31227;47.986;11.868;2023-02-01T13:17:09;41.84;35.36;55.12;;
45478;Laerm;31227;47.986;11.868;2023-02-01T13:19:42;41.76;34.69;58.37;;
45478;Laerm;31227;47.986;11.868;2023-02-01T13:24:54;41.71;34.31;58.86;;
45478;Laerm;31227;47.986;11.868;2023-02-01T13:27:21;41.09;35.36;54.86;;
45478;Laerm;31227;47.986;11.868;2023-02-01T13:29:50;41.16;35.04;48.92;;
45478;Laerm;31227;47.986;11.868;2023-02-01T13:40:06;41.52;35.36;53.42;;
45478;Laerm;31227;47.986;11.868;2023-02-01T13:45:42;41.32;35.04;55.08;;
45478;Laerm;31227;47.986;11.868;2023-02-01T13:48:21;41.43;35.36;49.41;;
45478;Laerm;31227;47.986;11.868;2023-02-01T13:50:50;41.11;35.36;48.69;;
45478;Laerm;31227;47.986;11.868;2023-02-01T13:53:17;41.98;35.66;50.31;;
45478;Laerm;31227;47.986;11.868;2023-02-01T13:55:44;41.19;34.31;51.91;;
45478;Laerm;31227;47.986;11.868;2023-02-01T14:00:36;41.81;35.36;51.25;;
45478;Laerm;31227;47.986;11.868;2023-02-01T14:03:06;41.49;35.66;50.59;;
45478;Laerm;31227;47.986;11.868;2023-02-01T14:16:20;41.60;34.69;61.47;;
45478;Laerm;31227;47.986;11.868;2023-02-01T14:23:56;41.03;34.31;46.15;;
45478;Laerm;31227;47.986;11.868;2023-02-01T14:26:44;43.03;36.45;61.25;;
45478;Laerm;31227;47.986;11.868;2023-02-01T14:31:51;41.53;35.01;58.14;;
45478;Laerm;31227;47.986;11.868;2023-02-01T14:34:19;42.23;36.45;57.76;;
45478;Laerm;31227;47.986;11.868;2023-02-01T14:36:47;42.21;36.20;51.93;;
45478;Laerm;31227;47.986;11.868;2023-02-01T14:44:54;45.98;36.69;68.00;;
45478;Laerm;31227;47.986;11.868;2023-02-01T14:49:49;43.09;36.45;60.25;;
45478;Laerm;31227;47.986;11.868;2023-02-01T14:52:18;43.83;36.69;65.10;;
45478;Laerm;31227;47.986;11.868;2023-02-01T14:54:54;42.78;34.69;54.09;;
45478;Laerm;31227;47.986;11.868;2023-02-01T14:57:20;44.80;36.45;66.12;;
45478;Laerm;31227;47.986;11.868;2023-02-01T14:59:48;45.10;35.36;72.18;;
45478;Laerm;31227;47.986;11.868;2023-02-01T15:02:18;42.04;35.36;63.16;;
45478;Laerm;31227;47.986;11.868;2023-02-01T15:04:52;43.21;36.45;62.23;;
45478;Laerm;31227;47.986;11.868;2023-02-01T15:07:18;44.15;36.20;66.17;;
45478;Laerm;31227;47.986;11.868;2023-02-01T15:09:44;44.82;37.17;69.42;;
45478;Laerm;31227;47.986;11.868;2023-02-01T15:14:37;42.34;35.66;59.47;;
45478;Laerm;31227;47.986;11.868;2023-02-01T15:17:15;43.71;37.70;65.66;;
45478;Laerm;31227;47.986;11.868;2023-02-01T15:19:52;43.50;36.91;62.51;;
45478;Laerm;31227;47.986;11.868;2023-02-01T15:22:18;43.36;36.45;64.71;;
45478;Laerm;31227;47.986;11.868;2023-02-01T15:24:48;43.93;36.45;62.22;;
45478;Laerm;31227;47.986;11.868;2023-02-01T15:27:16;43.15;36.45;60.06;;
45478;Laerm;31227;47.986;11.868;2023-02-01T15:29:42;42.51;36.69;57.38;;
45478;Laerm;31227;47.986;11.868;2023-02-01T15:32:15;45.69;36.45;64.94;;
45478;Laerm;31227;47.986;11.868;2023-02-01T15:34:52;42.38;36.45;59.72;;
45478;Laerm;31227;47.986;11.868;2023-02-01T15:37:20;44.32;37.35;68.29;;
45478;Laerm;31227;47.986;11.868;2023-02-01T15:42:33;43.32;37.88;61.00;;
45478;Laerm;31227;47.986;11.868;2023-02-01T15:44:58;42.98;35.36;56.95;;
45478;Laerm;31227;47.986;11.868;2023-02-01T15:47:25;42.29;35.36;52.67;;
45478;Laerm;31227;47.986;11.868;2023-02-01T15:49:51;42.54;35.36;55.96;;
45478;Laerm;31227;47.986;11.868;2023-02-01T15:54:46;41.98;35.94;50.33;;
45478;Laerm;31227;47.986;11.868;2023-02-01T15:57:18;41.83;34.31;47.85;;
45478;Laerm;31227;47.986;11.868;2023-02-01T15:59:44;41.14;36.10;47.04;;
45478;Laerm;31227;47.986;11.868;2023-02-01T16:02:32;41.65;35.94;49.28;;
45478;Laerm;31227;47.986;11.868;2023-02-01T16:04:59;42.77;36.91;56.85;;
45478;Laerm;31227;47.986;11.868;2023-02-01T16:07:28;42.52;35.36;49.19;;
45478;Laerm;31227;47.986;11.868;2023-02-01T16:09:54;42.16;35.04;49.82;;
45478;Laerm;31227;47.986;11.868;2023-02-01T16:15:01;43.73;36.69;50.77;;
45478;Laerm;31227;47.986;11.868;2023-02-01T16:17:26;58.74;37.12;81.47;;
45478;Laerm;31227;47.986;11.868;2023-02-01T16:19:51;43.71;35.36;62.12;;
45478;Laerm;31227;47.986;11.868;2023-02-01T16:22:17;43.22;35.66;53.56;;
45478;Laerm;31227;47.986;11.868;2023-02-01T16:24:42;43.48;35.66;59.91;;
45478;Laerm;31227;47.986;11.868;2023-02-01T16:27:07;43.00;35.94;59.28;;
45478;Laerm;31227;47.986;11.868;2023-02-01T16:29:33;43.22;35.66;58.40;;
45478;Laerm;31227;47.986;11.868;2023-02-01T16:31:58;43.73;36.45;67.72;;
45478;Laerm;31227;47.986;11.868;2023-02-01T16:34:24;42.18;35.94;54.73;;
45478;Laerm;31227;47.986;11.868;2023-02-01T16:36:50;42.02;34.31;48.22;;
45478;Laerm;31227;47.986;11.868;2023-02-01T16:39:21;42.90;35.94;55.74;;
45478;Laerm;31227;47.986;11.868;2023-02-01T16:41:47;42.88;36.45;53.31;;
45478;Laerm;31227;47.986;11.868;2023-02-01T16:44:12;42.12;36.69;54.42;;
45478;Laerm;31227;47.986;11.868;2023-02-01T16:46:44;42.60;36.91;52.68;;
45478;Laerm;31227;47.986;11.868;2023-02-01T16:49:29;42.53;36.20;52.22;;
45478;Laerm;31227;47.986;11.868;2023-02-01T16:51:58;43.21;35.04;60.77;;
45478;Laerm;31227;47.986;11.868;2023-02-01T16:54:24;42.41;34.69;53.86;;
45478;Laerm;31227;47.986;11.868;2023-02-01T16:56:49;45.03;35.04;69.37;;
45478;Laerm;31227;47.986;11.868;2023-02-01T16:59:14;44.43;35.66;68.16;;
45478;Laerm;31227;47.986;11.868;2023-02-01T17:01:40;42.71;36.91;55.57;;
45478;Laerm;31227;47.986;11.868;2023-02-01T17:04:07;42.71;36.69;53.39;;
45478;Laerm;31227;47.986;11.868;2023-02-01T17:06:32;41.68;35.04;52.80;;
45478;Laerm;31227;47.986;11.868;2023-02-01T17:09:01;40.78;34.31;47.00;;
45478;Laerm;31227;47.986;11.868;2023-02-01T17:11:28;42.12;35.94;55.71;;
45478;Laerm;31227;47.986;11.868;2023-02-01T17:13:55;42.08;35.36;53.76;;
45478;Laerm;31227;47.986;11.868;2023-02-01T17:16:51;41.74;35.04;51.59;;
45478;Laerm;31227;47.986;11.868;2023-02-01T17:19:21;41.94;35.36;53.86;;
45478;Laerm;31227;47.986;11.868;2023-02-01T17:21:50;41.49;36.20;47.36;;
45478;Laerm;31227;47.986;11.868;2023-02-01T17:24:21;41.32;35.36;48.08;;
45478;Laerm;31227;47.986;11.868;2023-02-01T17:26:47;41.70;35.36;47.10;;
45478;Laerm;31227;47.986;11.868;2023-02-01T17:29:15;41.24;35.36;49.47;;
45478;Laerm;31227;47.986;11.868;2023-02-01T17:31:44;41.58;35.94;55.72;;
45478;Laerm;31227;47.986;11.868;2023-02-01T17:34:11;40.94;35.04;48.02;;
45478;Laerm;31227;47.986;11.868;2023-02-01T17:36:37;41.21;34.31;51.22;;
45478;Laerm;31227;47.986;11.868;2023-02-01T17:39:03;40.96;34.69;48.52;;
45478;Laerm;31227;47.986;11.868;2023-02-01T17:41:32;40.70;34.31;53.62;;
45478;Laerm;31227;47.986;11.868;2023-02-01T17:43:57;41.45;34.69;47.50;;
45478;Laerm;31227;47.986;11.868;2023-02-01T17:46:23;41.39;35.04;46.91;;
45478;Laerm;31227;47.986;11.868;2023-02-01T17:48:53;42.30;35.31;58.80;;
45478;Laerm;31227;47.986;11.868;2023-02-01T17:51:20;43.34;34.69;71.24;;
45478;Laerm;31227;47.986;11.868;2023-02-01T17:53:46;41.35;34.31;58.70;;
45478;Laerm;31227;47.986;11.868;2023-02-01T17:56:12;41.10;35.36;50.84;;